createdAt,value
2017-01-18T00:00:17.281Z,0
2017-01-18T00:00:57.772Z,0
2017-01-18T00:01:52.909Z,0
2017-01-18T00:02:33.424Z,0
2017-01-18T00:03:13.993Z,0
2017-01-18T00:03:54.440Z,0
2017-01-18T00:04:34.945Z,0
2017-01-18T00:05:15.410Z,0
2017-01-18T00:05:55.914Z,0
2017-01-18T00:06:36.426Z,0
2017-01-18T00:07:16.912Z,0
2017-01-18T00:07:57.361Z,0
2017-01-18T00:08:37.880Z,0
2017-01-18T00:09:18.412Z,0
2017-01-18T00:09:58.861Z,0
2017-01-18T00:10:39.372Z,0
2017-01-18T00:11:19.896Z,0
2017-01-18T00:12:00.397Z,0
2017-01-18T00:12:40.872Z,0
2017-01-18T00:13:21.359Z,0
2017-01-18T00:14:01.890Z,0
2017-01-18T00:14:42.360Z,0
2017-01-18T00:15:22.846Z,0
2017-01-18T00:16:03.357Z,0
2017-01-18T00:16:43.852Z,0
2017-01-18T00:17:24.372Z,0
2017-01-18T00:18:04.874Z,0
2017-01-18T00:18:45.408Z,0
2017-01-18T00:19:25.894Z,0
2017-01-18T00:20:06.396Z,0
2017-01-18T00:20:46.881Z,0
2017-01-18T00:21:27.345Z,0
2017-01-18T00:22:07.863Z,0
2017-01-18T00:22:48.355Z,0
2017-01-18T00:23:28.863Z,0
2017-01-18T00:24:09.362Z,0
2017-01-18T00:24:49.856Z,0
2017-01-18T00:25:30.407Z,0
2017-01-18T00:26:10.875Z,0
2017-01-18T00:26:51.943Z,0
2017-01-18T00:27:32.459Z,0
2017-01-18T00:28:12.989Z,0
2017-01-18T00:28:53.487Z,0
2017-01-18T00:29:34.024Z,0
2017-01-18T00:30:14.510Z,0
2017-01-18T00:30:54.986Z,0
2017-01-18T00:31:35.481Z,0
2017-01-18T00:32:15.989Z,0
2017-01-18T00:32:56.499Z,0
2017-01-18T00:33:36.963Z,0
2017-01-18T00:34:17.487Z,0
2017-01-18T00:34:57.935Z,0
2017-01-18T00:35:38.396Z,0
2017-01-18T00:36:18.868Z,0
2017-01-18T00:36:59.355Z,0
2017-01-18T00:37:39.944Z,0
2017-01-18T00:38:20.429Z,0
2017-01-18T00:39:01.744Z,0
2017-01-18T00:39:42.215Z,0
2017-01-18T00:40:22.725Z,0
2017-01-18T00:41:03.216Z,0
2017-01-18T00:41:43.717Z,0
2017-01-18T00:42:24.230Z,0
2017-01-18T00:43:04.692Z,0
2017-01-18T00:43:45.175Z,0
2017-01-18T00:44:25.675Z,0
2017-01-18T00:45:06.175Z,0
2017-01-18T00:45:46.638Z,0
2017-01-18T00:46:27.123Z,0
2017-01-18T00:47:07.612Z,0
2017-01-18T00:47:48.099Z,0
2017-01-18T00:48:29.131Z,0
2017-01-18T00:49:09.630Z,0
2017-01-18T00:49:50.879Z,0
2017-01-18T00:50:31.333Z,0
2017-01-18T00:51:11.925Z,0
2017-01-18T00:51:52.444Z,0
2017-01-18T00:52:32.929Z,0
2017-01-18T00:53:14.173Z,0
2017-01-18T00:53:55.511Z,0
2017-01-18T00:54:35.996Z,0
2017-01-18T00:55:17.409Z,0
2017-01-18T00:55:57.899Z,0
2017-01-18T00:56:38.494Z,0
2017-01-18T00:57:18.906Z,0
2017-01-18T00:57:59.414Z,0
2017-01-18T00:58:39.886Z,0
2017-01-18T00:59:20.393Z,0
2017-01-18T01:00:01.851Z,0
2017-01-18T01:00:42.322Z,0
2017-01-18T01:01:22.839Z,0
2017-01-18T01:02:03.304Z,0
2017-01-18T01:02:43.804Z,0
2017-01-18T01:03:24.333Z,0
2017-01-18T01:04:04.798Z,0
2017-01-18T01:04:45.302Z,0
2017-01-18T01:05:25.797Z,0
2017-01-18T01:06:06.283Z,0
2017-01-18T01:06:46.781Z,0
2017-01-18T01:07:27.263Z,0
2017-01-18T01:08:07.769Z,0
2017-01-18T01:08:48.239Z,0
2017-01-18T01:09:28.752Z,0
2017-01-18T01:10:09.253Z,0
2017-01-18T01:10:49.742Z,0
2017-01-18T01:11:30.211Z,0
2017-01-18T01:12:10.710Z,0
2017-01-18T01:12:51.186Z,0
2017-01-18T01:13:31.698Z,0
2017-01-18T01:14:12.132Z,0
2017-01-18T01:14:52.603Z,0
2017-01-18T01:15:33.094Z,0
2017-01-18T01:16:13.563Z,0
2017-01-18T01:16:54.065Z,0
2017-01-18T01:17:34.560Z,0
2017-01-18T01:18:15.040Z,0
2017-01-18T01:18:55.515Z,0
2017-01-18T01:19:35.969Z,0
2017-01-18T01:20:16.503Z,0
2017-01-18T01:20:56.964Z,0
2017-01-18T01:21:37.417Z,0
2017-01-18T01:22:17.907Z,0
2017-01-18T01:22:58.369Z,0
2017-01-18T01:23:38.864Z,0
2017-01-18T01:24:19.347Z,0
2017-01-18T01:24:59.829Z,0
2017-01-18T01:25:40.417Z,0
2017-01-18T01:26:20.809Z,0
2017-01-18T01:27:01.299Z,0
2017-01-18T01:27:41.815Z,0
2017-01-18T01:28:22.281Z,0
2017-01-18T01:29:02.797Z,0
2017-01-18T01:29:43.339Z,0
2017-01-18T01:30:23.908Z,0
2017-01-18T01:31:04.378Z,0
2017-01-18T01:31:44.870Z,0
2017-01-18T01:32:25.428Z,0
2017-01-18T01:33:05.899Z,0
2017-01-18T01:33:46.404Z,0
2017-01-18T01:34:26.936Z,0
2017-01-18T01:35:07.391Z,0
2017-01-18T01:35:47.893Z,0
2017-01-18T01:36:29.033Z,0
2017-01-18T01:37:09.492Z,0
2017-01-18T01:37:50.839Z,0
2017-01-18T01:38:31.331Z,0
2017-01-18T01:39:11.833Z,0
2017-01-18T01:39:52.344Z,0
2017-01-18T01:40:32.848Z,0
2017-01-18T01:41:13.935Z,0
2017-01-18T01:41:54.446Z,0
2017-01-18T01:42:34.952Z,0
2017-01-18T01:43:15.432Z,0
2017-01-18T01:43:55.950Z,0
2017-01-18T01:44:36.457Z,0
2017-01-18T01:45:16.961Z,0
2017-01-18T01:45:57.460Z,0
2017-01-18T01:46:38.764Z,0
2017-01-18T01:47:19.236Z,0
2017-01-18T01:47:59.688Z,0
2017-01-18T01:48:40.191Z,0
2017-01-18T01:49:20.646Z,0
2017-01-18T01:50:01.914Z,0
2017-01-18T01:50:42.414Z,0
2017-01-18T01:51:22.945Z,0
2017-01-18T01:52:03.440Z,0
2017-01-18T01:52:44.517Z,0
2017-01-18T01:53:25.037Z,0
2017-01-18T01:54:05.547Z,0
2017-01-18T01:54:47.030Z,0
2017-01-18T01:55:27.533Z,0
2017-01-18T01:56:08.014Z,0
2017-01-18T01:56:48.543Z,0
2017-01-18T01:57:29.016Z,0
2017-01-18T01:58:09.508Z,0
2017-01-18T01:58:49.997Z,0
2017-01-18T01:59:30.487Z,0
2017-01-18T02:00:11.023Z,0
2017-01-18T02:00:51.478Z,0
2017-01-18T02:01:31.999Z,0
2017-01-18T02:02:12.586Z,0
2017-01-18T02:02:53.071Z,0
2017-01-18T02:03:33.655Z,0
2017-01-18T02:04:14.215Z,0
2017-01-18T02:04:54.725Z,0
2017-01-18T02:05:35.175Z,0
2017-01-18T02:06:15.667Z,0
2017-01-18T02:06:56.130Z,0
2017-01-18T02:07:37.317Z,0
2017-01-18T02:08:17.790Z,0
2017-01-18T02:08:58.294Z,0
2017-01-18T02:09:38.786Z,0
2017-01-18T02:10:19.314Z,0
2017-01-18T02:10:59.764Z,0
2017-01-18T02:11:40.320Z,0
2017-01-18T02:12:20.868Z,0
2017-01-18T02:13:01.349Z,0
2017-01-18T02:13:41.867Z,0
2017-01-18T02:14:22.362Z,0
2017-01-18T02:15:02.887Z,0
2017-01-18T02:15:43.422Z,0
2017-01-18T02:16:23.925Z,0
2017-01-18T02:17:04.368Z,0
2017-01-18T02:17:44.870Z,0
2017-01-18T02:18:25.339Z,0
2017-01-18T02:19:05.896Z,0
2017-01-18T02:19:46.373Z,0
2017-01-18T02:20:26.815Z,0
2017-01-18T02:21:07.292Z,0
2017-01-18T02:21:47.812Z,0
2017-01-18T02:22:28.315Z,0
2017-01-18T02:23:08.811Z,0
2017-01-18T02:23:49.307Z,0
2017-01-18T02:24:29.860Z,0
2017-01-18T02:25:10.319Z,0
2017-01-18T02:25:50.850Z,0
2017-01-18T02:26:31.380Z,0
2017-01-18T02:27:11.879Z,0
2017-01-18T02:27:52.370Z,0
2017-01-18T02:28:32.835Z,0
2017-01-18T02:29:13.368Z,0
2017-01-18T02:30:00.831Z,0
2017-01-18T02:30:41.323Z,0
2017-01-18T02:31:21.827Z,0
2017-01-18T02:32:02.293Z,0
2017-01-18T02:32:42.772Z,0
2017-01-18T02:33:23.269Z,0
2017-01-18T02:34:03.753Z,0
2017-01-18T02:34:44.248Z,0
2017-01-18T02:35:24.766Z,0
2017-01-18T02:36:05.250Z,0
2017-01-18T02:36:45.828Z,0
2017-01-18T02:37:26.313Z,0
2017-01-18T02:38:07.420Z,0
2017-01-18T02:38:47.925Z,0
2017-01-18T02:39:28.434Z,0
2017-01-18T02:40:08.903Z,0
2017-01-18T02:40:49.356Z,0
2017-01-18T02:41:29.864Z,0
2017-01-18T02:42:10.355Z,0
2017-01-18T02:42:50.865Z,0
2017-01-18T02:43:31.332Z,0
2017-01-18T02:44:12.411Z,0
2017-01-18T02:44:52.876Z,0
2017-01-18T02:45:34.349Z,0
2017-01-18T02:46:14.855Z,0
2017-01-18T02:46:55.316Z,0
2017-01-18T02:47:35.834Z,0
2017-01-18T02:48:16.287Z,0
2017-01-18T02:48:56.793Z,0
2017-01-18T02:49:37.278Z,0
2017-01-18T02:50:18.757Z,0
2017-01-18T02:50:59.237Z,0
2017-01-18T02:51:39.739Z,0
2017-01-18T02:52:20.276Z,0
2017-01-18T02:53:00.805Z,0
2017-01-18T02:53:41.286Z,0
2017-01-18T02:54:21.709Z,0
2017-01-18T02:55:02.201Z,0
2017-01-18T02:55:42.666Z,0
2017-01-18T02:56:23.710Z,0
2017-01-18T02:57:04.202Z,0
2017-01-18T02:57:44.676Z,0
2017-01-18T02:58:25.149Z,0
2017-01-18T02:59:05.675Z,0
2017-01-18T02:59:46.178Z,0
2017-01-18T03:00:26.684Z,0
2017-01-18T03:01:07.140Z,0
2017-01-18T03:01:47.636Z,0
2017-01-18T03:02:28.129Z,0
2017-01-18T03:03:08.584Z,0
2017-01-18T03:03:49.110Z,0
2017-01-18T03:04:30.235Z,0
2017-01-18T03:05:10.706Z,0
2017-01-18T03:05:51.181Z,0
2017-01-18T03:06:31.676Z,0
2017-01-18T03:07:12.742Z,0
2017-01-18T03:07:53.220Z,0
2017-01-18T03:08:33.738Z,0
2017-01-18T03:09:14.202Z,0
2017-01-18T03:09:54.717Z,0
2017-01-18T03:10:35.197Z,0
2017-01-18T03:11:15.743Z,0
2017-01-18T03:11:56.268Z,0
2017-01-18T03:12:36.784Z,0
2017-01-18T03:13:18.125Z,0
2017-01-18T03:13:59.402Z,0
2017-01-18T03:14:40.535Z,0
2017-01-18T03:15:20.995Z,0
2017-01-18T03:16:01.487Z,0
2017-01-18T03:16:41.985Z,0
2017-01-18T03:17:22.495Z,0
2017-01-18T03:18:02.974Z,0
2017-01-18T03:18:43.506Z,0
2017-01-18T03:19:23.959Z,0
2017-01-18T03:20:04.505Z,0
2017-01-18T03:20:45.708Z,0
2017-01-18T03:21:26.201Z,0
2017-01-18T03:22:06.657Z,0
2017-01-18T03:22:47.157Z,0
2017-01-18T03:23:28.326Z,0
2017-01-18T03:24:09.351Z,0
2017-01-18T03:24:49.847Z,0
2017-01-18T03:25:30.350Z,0
2017-01-18T03:26:10.887Z,0
2017-01-18T03:26:51.363Z,0
2017-01-18T03:27:31.859Z,0
2017-01-18T03:28:13.312Z,0
2017-01-18T03:28:53.834Z,0
2017-01-18T03:29:34.360Z,0
2017-01-18T03:30:16.721Z,0
2017-01-18T03:30:57.179Z,0
2017-01-18T03:31:37.685Z,0
2017-01-18T03:32:18.137Z,0
2017-01-18T03:32:58.652Z,0
2017-01-18T03:33:39.103Z,0
2017-01-18T03:34:19.600Z,0
2017-01-18T03:35:00.079Z,0
2017-01-18T03:35:40.616Z,0
2017-01-18T03:36:21.091Z,0
2017-01-18T03:37:01.604Z,0
2017-01-18T03:37:42.052Z,0
2017-01-18T03:38:22.535Z,0
2017-01-18T03:39:03.811Z,0
2017-01-18T03:39:44.306Z,0
2017-01-18T03:40:25.654Z,0
2017-01-18T03:42:58.752Z,0
2017-01-18T03:43:42.575Z,0
2017-01-18T03:44:23.068Z,0
2017-01-18T03:45:07.099Z,0
2017-01-18T03:45:47.588Z,0
2017-01-18T03:46:32.471Z,0
2017-01-18T03:47:12.956Z,0
2017-01-18T03:47:58.836Z,0
2017-01-18T03:48:39.357Z,0
2017-01-18T03:49:19.831Z,0
2017-01-18T03:50:00.296Z,0
2017-01-18T03:50:42.466Z,0
2017-01-18T03:51:22.920Z,0
2017-01-18T03:52:05.988Z,0
2017-01-18T03:52:46.453Z,0
2017-01-18T03:53:26.959Z,0
2017-01-18T03:54:07.401Z,0
2017-01-18T03:54:52.624Z,0
2017-01-18T03:55:35.059Z,0
2017-01-18T03:56:15.591Z,0
2017-01-18T03:57:01.972Z,0
2017-01-18T03:57:44.377Z,0
2017-01-18T03:58:24.843Z,0
2017-01-18T03:59:09.050Z,0
2017-01-18T03:59:49.544Z,0
2017-01-18T04:00:29.981Z,0
2017-01-18T04:01:16.056Z,0
2017-01-18T04:01:56.513Z,0
2017-01-18T04:02:37.015Z,0
2017-01-18T04:03:17.476Z,0
2017-01-18T04:03:57.957Z,0
2017-01-18T04:04:40.150Z,0
2017-01-18T04:05:20.631Z,0
2017-01-18T04:06:03.062Z,0
2017-01-18T04:06:43.573Z,0
2017-01-18T04:07:26.742Z,0
2017-01-18T04:08:09.858Z,0
2017-01-18T04:08:51.977Z,0
2017-01-18T04:09:37.058Z,0
2017-01-18T04:10:20.454Z,0
2017-01-18T04:11:03.751Z,0
2017-01-18T04:11:45.901Z,0
2017-01-18T04:12:26.613Z,0
2017-01-18T04:13:07.086Z,0
2017-01-18T04:13:47.562Z,0
2017-01-18T04:14:28.013Z,0
2017-01-18T04:15:12.124Z,0
2017-01-18T04:15:52.875Z,0
2017-01-18T04:16:33.348Z,0
2017-01-18T04:17:13.850Z,0
2017-01-18T04:17:56.050Z,0
2017-01-18T04:18:36.558Z,0
2017-01-18T04:19:18.656Z,0
2017-01-18T04:19:59.128Z,0
2017-01-18T04:20:41.558Z,0
2017-01-18T04:21:22.072Z,0
2017-01-18T04:22:02.565Z,0
2017-01-18T04:22:43.025Z,0
2017-01-18T04:23:25.353Z,0
2017-01-18T04:24:10.613Z,0
2017-01-18T04:24:51.065Z,0
2017-01-18T04:25:31.544Z,0
2017-01-18T04:26:14.745Z,0
2017-01-18T04:26:55.338Z,0
2017-01-18T04:27:35.854Z,0
2017-01-18T04:28:20.659Z,0
2017-01-18T04:29:02.606Z,0
2017-01-18T04:29:43.082Z,0
2017-01-18T04:30:23.614Z,0
2017-01-18T04:31:05.788Z,0
2017-01-18T04:31:46.272Z,0
2017-01-18T04:32:26.788Z,0
2017-01-18T04:33:08.764Z,0
2017-01-18T04:33:49.247Z,0
2017-01-18T04:34:29.746Z,0
2017-01-18T04:35:11.776Z,0
2017-01-18T04:35:56.487Z,0
2017-01-18T04:36:37.961Z,0
2017-01-18T04:37:19.980Z,0
2017-01-18T04:38:00.513Z,0
2017-01-18T04:38:40.982Z,0
2017-01-18T04:39:23.731Z,0
2017-01-18T04:40:04.181Z,0
2017-01-18T04:40:47.648Z,0
2017-01-18T04:41:32.796Z,0
2017-01-18T04:42:13.267Z,0
2017-01-18T04:42:53.797Z,0
2017-01-18T04:43:34.253Z,0
2017-01-18T04:44:18.573Z,0
2017-01-18T04:45:00.206Z,0
2017-01-18T04:45:42.632Z,0
2017-01-18T04:46:25.051Z,0
2017-01-18T04:47:05.538Z,0
2017-01-18T04:47:45.998Z,0
2017-01-18T04:48:26.504Z,0
2017-01-18T04:49:06.998Z,0
2017-01-18T04:49:50.165Z,0
2017-01-18T04:50:30.675Z,0
2017-01-18T04:51:12.970Z,0
2017-01-18T04:51:53.448Z,0
2017-01-18T04:52:33.893Z,0
2017-01-18T04:53:14.395Z,0
2017-01-18T04:53:54.875Z,0
2017-01-18T04:54:35.353Z,0
2017-01-18T04:55:15.803Z,0
2017-01-18T04:55:56.305Z,0
2017-01-18T04:56:38.524Z,0
2017-01-18T04:57:19.008Z,0
2017-01-18T04:57:59.786Z,0
2017-01-18T04:58:40.260Z,0
2017-01-18T04:59:20.757Z,0
2017-01-18T05:00:01.256Z,0
2017-01-18T05:00:44.447Z,0
2017-01-18T05:01:24.962Z,0
2017-01-18T05:02:05.442Z,0
2017-01-18T05:02:45.911Z,0
2017-01-18T05:03:26.419Z,0
2017-01-18T05:04:06.906Z,0
2017-01-18T05:04:47.403Z,0
2017-01-18T05:05:30.808Z,0
2017-01-18T05:06:12.325Z,0
2017-01-18T05:06:54.468Z,0
2017-01-18T05:07:37.735Z,0
2017-01-18T05:08:18.220Z,0
2017-01-18T05:09:02.455Z,0
2017-01-18T05:09:42.914Z,0
2017-01-18T05:10:23.780Z,0
2017-01-18T05:11:05.865Z,0
2017-01-18T05:11:46.357Z,0
2017-01-18T05:12:32.974Z,0
2017-01-18T05:13:15.246Z,0
2017-01-18T05:13:55.777Z,0
2017-01-18T05:14:36.839Z,0
2017-01-18T05:15:17.338Z,0
2017-01-18T05:15:57.849Z,0
2017-01-18T05:16:38.326Z,0
2017-01-18T05:17:18.805Z,0
2017-01-18T05:17:59.334Z,0
2017-01-18T05:18:41.765Z,0
2017-01-18T05:19:22.283Z,0
2017-01-18T05:20:02.739Z,0
2017-01-18T05:20:43.776Z,0
2017-01-18T05:21:24.246Z,0
2017-01-18T05:22:08.982Z,0
2017-01-18T05:22:50.949Z,0
2017-01-18T05:23:31.422Z,0
2017-01-18T05:24:11.957Z,0
2017-01-18T05:24:52.400Z,0
2017-01-18T05:25:32.881Z,0
2017-01-18T05:26:14.184Z,0
2017-01-18T05:26:54.678Z,0
2017-01-18T05:27:35.144Z,0
2017-01-18T05:28:15.643Z,0
2017-01-18T05:28:56.123Z,0
2017-01-18T05:29:36.649Z,0
2017-01-18T05:30:17.163Z,0
2017-01-18T05:30:58.724Z,0
2017-01-18T05:31:39.259Z,0
2017-01-18T05:32:19.706Z,0
2017-01-18T05:33:00.187Z,0
2017-01-18T05:33:40.741Z,0
2017-01-18T05:34:21.255Z,0
2017-01-18T05:35:01.755Z,0
2017-01-18T05:35:42.278Z,0
2017-01-18T05:36:22.741Z,0
2017-01-18T05:37:03.242Z,0
2017-01-18T05:37:43.764Z,0
2017-01-18T05:38:24.292Z,0
2017-01-18T05:39:04.732Z,0
2017-01-18T05:39:45.209Z,0
2017-01-18T05:40:25.735Z,0
2017-01-18T05:41:09.053Z,0
2017-01-18T05:41:49.598Z,0
2017-01-18T05:42:32.896Z,0
2017-01-18T05:43:13.409Z,0
2017-01-18T05:43:53.874Z,0
2017-01-18T05:44:34.868Z,0
2017-01-18T05:45:15.329Z,0
2017-01-18T05:45:55.812Z,0
2017-01-18T05:46:36.283Z,0
2017-01-18T05:47:16.720Z,0
2017-01-18T05:47:57.240Z,0
2017-01-18T05:48:37.803Z,0
2017-01-18T05:49:18.271Z,0
2017-01-18T05:49:58.744Z,0
2017-01-18T05:50:39.294Z,0
2017-01-18T05:51:21.621Z,0
2017-01-18T05:52:02.125Z,0
2017-01-18T05:52:42.598Z,0
2017-01-18T05:53:23.092Z,0
2017-01-18T05:54:03.534Z,0
2017-01-18T05:54:44.741Z,0
2017-01-18T05:55:25.209Z,0
2017-01-18T05:56:07.623Z,0
2017-01-18T05:56:48.757Z,0
2017-01-18T05:57:31.071Z,0
2017-01-18T05:58:11.562Z,0
2017-01-18T05:58:52.733Z,0
2017-01-18T05:59:33.206Z,0
2017-01-18T06:00:16.608Z,0
2017-01-18T06:00:57.073Z,0
2017-01-18T06:01:37.532Z,0
2017-01-18T06:02:18.986Z,0
2017-01-18T06:02:59.452Z,0
2017-01-18T06:03:39.948Z,0
2017-01-18T06:04:20.451Z,0
2017-01-18T06:05:00.931Z,0
2017-01-18T06:05:41.431Z,0
2017-01-18T06:06:21.890Z,0
2017-01-18T06:07:02.378Z,0
2017-01-18T06:07:42.900Z,0
2017-01-18T06:08:23.428Z,0
2017-01-18T06:09:03.895Z,0
2017-01-18T06:09:44.378Z,0
2017-01-18T06:10:24.906Z,0
2017-01-18T06:11:07.953Z,0
2017-01-18T06:11:48.424Z,0
2017-01-18T06:12:28.908Z,0
2017-01-18T06:13:12.046Z,0
2017-01-18T06:13:52.519Z,0
2017-01-18T06:14:32.988Z,0
2017-01-18T06:15:13.465Z,0
2017-01-18T06:15:53.927Z,0
2017-01-18T06:16:34.457Z,0
2017-01-18T06:17:14.885Z,0
2017-01-18T06:17:55.354Z,0
2017-01-18T06:18:36.132Z,0
2017-01-18T06:19:16.917Z,0
2017-01-18T06:19:58.463Z,0
2017-01-18T06:20:39.865Z,0
2017-01-18T06:21:22.249Z,0
2017-01-18T06:22:05.635Z,0
2017-01-18T06:22:46.134Z,0
2017-01-18T06:23:26.624Z,0
2017-01-18T06:24:07.122Z,0
2017-01-18T06:24:47.854Z,0
2017-01-18T06:25:28.369Z,0
2017-01-18T06:26:08.929Z,0
2017-01-18T06:26:49.403Z,0
2017-01-18T06:27:29.910Z,0
2017-01-18T06:28:10.397Z,0
2017-01-18T06:28:51.126Z,0
2017-01-18T06:29:31.447Z,0
2017-01-18T06:30:12.018Z,0
2017-01-18T06:30:54.807Z,0
2017-01-18T06:31:35.317Z,0
2017-01-18T06:32:15.834Z,0
2017-01-18T06:33:01.850Z,0
2017-01-18T06:33:42.331Z,0
2017-01-18T06:34:22.808Z,0
2017-01-18T06:35:03.316Z,0
2017-01-18T06:35:43.899Z,0
2017-01-18T06:36:25.102Z,0
2017-01-18T06:37:05.587Z,0
2017-01-18T06:37:46.071Z,0
2017-01-18T06:38:26.614Z,0
2017-01-18T06:39:07.088Z,0
2017-01-18T06:39:47.540Z,0
2017-01-18T06:40:28.008Z,0
2017-01-18T06:41:08.495Z,0
2017-01-18T06:41:48.989Z,0
2017-01-18T06:42:29.644Z,0
2017-01-18T06:43:10.160Z,0
2017-01-18T06:43:50.629Z,0
2017-01-18T06:44:32.792Z,0
2017-01-18T06:45:13.303Z,0
2017-01-18T06:45:53.769Z,0
2017-01-18T06:46:36.911Z,0
2017-01-18T06:47:17.365Z,0
2017-01-18T06:47:57.893Z,0
2017-01-18T06:48:38.991Z,0
2017-01-18T06:49:22.621Z,0
2017-01-18T06:50:03.118Z,0
2017-01-18T06:50:43.598Z,0
2017-01-18T06:51:24.078Z,0
2017-01-18T06:52:10.935Z,0
2017-01-18T06:52:51.420Z,0
2017-01-18T06:53:31.927Z,0
2017-01-18T06:54:12.369Z,0
2017-01-18T06:54:52.903Z,0
2017-01-18T06:55:33.374Z,0
2017-01-18T06:56:26.524Z,0
2017-01-18T06:58:56.072Z,0
2017-01-18T06:59:36.535Z,0
2017-01-18T07:00:17.495Z,0
2017-01-18T07:00:58.059Z,0
2017-01-18T07:01:38.661Z,0
2017-01-18T07:02:19.143Z,0
2017-01-18T07:02:59.869Z,0
2017-01-18T07:03:40.243Z,0
2017-01-18T07:04:20.714Z,0
2017-01-18T07:05:01.271Z,0
2017-01-18T07:05:41.808Z,0
2017-01-18T07:06:22.309Z,0
2017-01-18T07:07:04.436Z,0
2017-01-18T07:07:45.013Z,0
2017-01-18T07:08:25.557Z,0
2017-01-18T07:09:06.040Z,0
2017-01-18T07:09:46.509Z,0
2017-01-18T07:10:27.028Z,0
2017-01-18T07:11:07.523Z,0
2017-01-18T07:11:47.973Z,0
2017-01-18T07:12:28.523Z,0
2017-01-18T07:13:09.001Z,0
2017-01-18T07:13:49.521Z,0
2017-01-18T07:14:30.057Z,0
2017-01-18T07:15:10.512Z,0
2017-01-18T07:15:51.054Z,0
2017-01-18T07:16:31.550Z,0
2017-01-18T07:17:12.016Z,0
2017-01-18T07:17:52.634Z,0
2017-01-18T07:18:33.129Z,0
2017-01-18T07:19:14.005Z,0
2017-01-18T07:19:54.873Z,0
2017-01-18T07:20:35.357Z,0
2017-01-18T07:21:15.854Z,0
2017-01-18T07:21:56.329Z,0
2017-01-18T07:22:36.797Z,0
2017-01-18T07:23:17.306Z,0
2017-01-18T07:23:57.771Z,0
2017-01-18T07:24:38.245Z,0
2017-01-18T07:25:18.729Z,0
2017-01-18T07:25:59.235Z,0
2017-01-18T07:26:39.759Z,0
2017-01-18T07:27:20.666Z,0
2017-01-18T07:28:01.196Z,0
2017-01-18T07:30:19.526Z,5
2017-01-18T07:31:00.048Z,5
2017-01-18T07:31:40.510Z,5
2017-01-18T07:32:20.969Z,5
2017-01-18T07:33:01.455Z,5
2017-01-18T07:33:41.968Z,5
2017-01-18T07:34:22.487Z,5
2017-01-18T07:35:02.936Z,5
2017-01-18T07:35:44.910Z,5
2017-01-18T07:36:26.179Z,5
2017-01-18T07:37:06.661Z,5
2017-01-18T07:37:52.802Z,5
2017-01-18T07:38:33.374Z,10
2017-01-18T07:39:14.602Z,10
2017-01-18T07:39:57.108Z,10
2017-01-18T07:40:41.252Z,10
2017-01-18T07:41:26.502Z,10
2017-01-18T07:42:09.317Z,10
2017-01-18T07:42:57.431Z,10
2017-01-18T07:43:37.924Z,10
2017-01-18T07:44:18.664Z,10
2017-01-18T07:44:59.825Z,15
2017-01-18T07:45:40.899Z,15
2017-01-18T07:46:21.682Z,15
2017-01-18T07:47:02.537Z,15
2017-01-18T07:47:44.231Z,15
2017-01-18T07:48:25.030Z,15
2017-01-18T07:49:05.556Z,15
2017-01-18T07:49:46.107Z,20
2017-01-18T07:50:26.524Z,20
2017-01-18T07:51:07.183Z,20
2017-01-18T07:51:47.622Z,20
2017-01-18T07:52:28.224Z,20
2017-01-18T07:53:08.668Z,20
2017-01-18T07:53:49.188Z,20
2017-01-18T07:54:29.684Z,25
2017-01-18T07:55:10.187Z,25
2017-01-18T07:55:50.627Z,25
2017-01-18T07:56:31.155Z,25
2017-01-18T07:57:11.629Z,30
2017-01-18T07:57:52.148Z,30
2017-01-18T07:58:32.631Z,30
2017-01-18T07:59:13.153Z,30
2017-01-18T07:59:53.684Z,30
2017-01-18T08:00:40.560Z,35
2017-01-18T08:01:19.930Z,35
2017-01-18T08:02:00.484Z,35
2017-01-18T08:02:41.019Z,35
2017-01-18T08:03:21.538Z,35
2017-01-18T08:04:01.974Z,35
2017-01-18T08:04:42.543Z,35
2017-01-18T08:05:23.076Z,40
2017-01-18T08:06:06.312Z,40
2017-01-18T08:06:52.620Z,40
2017-01-18T08:07:33.647Z,40
2017-01-18T08:08:14.311Z,40
2017-01-18T08:08:58.450Z,40
2017-01-18T08:09:42.008Z,40
2017-01-18T08:10:22.763Z,40
2017-01-18T08:11:04.333Z,40
2017-01-18T08:11:44.959Z,40
2017-01-18T08:12:25.528Z,40
2017-01-18T08:13:07.063Z,40
2017-01-18T08:13:51.898Z,40
2017-01-18T08:14:33.231Z,40
2017-01-18T08:15:14.473Z,40
2017-01-18T08:15:55.541Z,40
2017-01-18T08:16:36.160Z,40
2017-01-18T08:17:17.285Z,40
2017-01-18T08:17:58.009Z,40
2017-01-18T08:18:39.485Z,40
2017-01-18T08:19:21.552Z,40
2017-01-18T08:20:02.055Z,40
2017-01-18T08:20:44.629Z,40
2017-01-18T08:21:28.640Z,40
2017-01-18T08:22:16.036Z,40
2017-01-18T08:23:00.970Z,40
2017-01-18T08:23:50.527Z,40
2017-01-18T08:28:35.118Z,45
2017-01-18T08:29:25.863Z,45
2017-01-18T08:30:11.925Z,45
2017-01-18T08:30:52.448Z,50
2017-01-18T08:31:33.182Z,50
2017-01-18T08:32:13.660Z,50
2017-01-18T08:33:01.135Z,50
2017-01-18T08:33:49.710Z,50
2017-01-18T08:34:41.288Z,50
2017-01-18T08:35:27.918Z,50
2017-01-18T08:36:15.902Z,50
2017-01-18T08:37:04.883Z,50
2017-01-18T08:37:51.858Z,50
2017-01-18T08:38:42.910Z,55
2017-01-18T08:39:37.612Z,55
2017-01-18T08:40:27.158Z,55
2017-01-18T08:41:14.245Z,55
2017-01-18T08:42:01.984Z,55
2017-01-18T08:46:16.136Z,55
2017-01-18T08:47:16.394Z,55
2017-01-18T08:48:06.025Z,55
2017-01-18T08:49:00.650Z,55
2017-01-18T08:49:42.668Z,60
2017-01-18T08:50:23.182Z,60
2017-01-18T08:51:06.153Z,60
2017-01-18T08:51:46.691Z,60
2017-01-18T08:52:27.249Z,60
2017-01-18T08:53:07.731Z,60
2017-01-18T08:53:49.843Z,60
2017-01-18T08:54:30.323Z,60
2017-01-18T08:55:10.903Z,60
2017-01-18T08:55:51.650Z,60
2017-01-18T08:56:33.280Z,60
2017-01-18T08:57:14.240Z,60
2017-01-18T08:57:55.810Z,60
2017-01-18T08:58:36.373Z,65
2017-01-18T08:59:16.845Z,65
2017-01-18T08:59:57.727Z,65
2017-01-18T09:00:38.713Z,65
2017-01-18T09:01:19.633Z,65
2017-01-18T09:02:00.146Z,65
2017-01-18T09:02:40.680Z,65
2017-01-18T09:03:29.690Z,65
2017-01-18T09:04:17.387Z,65
2017-01-18T09:05:07.291Z,65
2017-01-18T09:05:59.745Z,65
2017-01-18T09:08:59.073Z,65
2017-01-18T09:09:43.410Z,65
2017-01-18T09:10:30.426Z,65
2017-01-18T09:11:18.872Z,70
2017-01-18T09:12:10.270Z,70
2017-01-18T09:12:54.974Z,70
2017-01-18T09:13:35.451Z,70
2017-01-18T09:14:15.928Z,70
2017-01-18T09:14:56.394Z,70
2017-01-18T09:15:36.905Z,70
2017-01-18T09:16:17.444Z,70
2017-01-18T09:16:57.947Z,70
2017-01-18T09:17:38.506Z,70
2017-01-18T09:18:19.585Z,75
2017-01-18T09:18:59.907Z,75
2017-01-18T09:19:40.473Z,75
2017-01-18T09:20:21.065Z,75
2017-01-18T09:21:01.498Z,75
2017-01-18T09:21:41.982Z,75
2017-01-18T09:22:22.476Z,75
2017-01-18T09:23:02.971Z,75
2017-01-18T09:23:43.505Z,75
2017-01-18T09:24:24.071Z,80
2017-01-18T09:25:04.712Z,80
2017-01-18T09:25:45.364Z,80
2017-01-18T09:26:25.828Z,80
2017-01-18T09:27:06.301Z,80
2017-01-18T09:27:46.891Z,80
2017-01-18T09:28:27.427Z,75
2017-01-18T09:29:07.910Z,75
2017-01-18T09:29:49.076Z,75
2017-01-18T09:30:29.796Z,75
2017-01-18T09:31:10.245Z,80
2017-01-18T09:31:50.763Z,75
2017-01-18T09:32:31.335Z,75
2017-01-18T09:33:12.830Z,75
2017-01-18T09:33:53.429Z,75
2017-01-18T09:34:33.900Z,75
2017-01-18T09:35:14.495Z,80
2017-01-18T09:35:55.035Z,80
2017-01-18T09:36:35.518Z,80
2017-01-18T09:37:16.066Z,85
2017-01-18T09:37:56.741Z,85
2017-01-18T09:38:37.903Z,85
2017-01-18T09:39:20.049Z,90
2017-01-18T09:40:01.788Z,90
2017-01-18T09:40:42.267Z,90
2017-01-18T09:41:23.840Z,95
2017-01-18T09:42:05.167Z,95
2017-01-18T09:42:45.703Z,95
2017-01-18T09:43:26.222Z,100
2017-01-18T09:44:06.839Z,100
2017-01-18T09:44:47.449Z,105
2017-01-18T09:45:27.955Z,105
2017-01-18T09:46:08.431Z,110
2017-01-18T09:46:48.939Z,110
2017-01-18T09:47:29.409Z,115
2017-01-18T09:48:09.954Z,115
2017-01-18T09:48:50.478Z,120
2017-01-18T09:49:31.591Z,120
2017-01-18T09:50:12.095Z,120
2017-01-18T09:50:52.564Z,120
2017-01-18T09:51:33.052Z,125
2017-01-18T09:52:13.553Z,125
2017-01-18T09:53:06.709Z,130
2017-01-18T09:53:49.964Z,130
2017-01-18T09:54:30.476Z,130
2017-01-18T09:55:10.962Z,135
2017-01-18T09:55:51.426Z,135
2017-01-18T09:56:32.072Z,135
2017-01-18T09:57:12.581Z,135
2017-01-18T09:57:53.284Z,135
2017-01-18T09:58:33.750Z,135
2017-01-18T09:59:14.266Z,135
2017-01-18T09:59:54.744Z,130
2017-01-18T10:00:35.276Z,125
2017-01-18T10:01:15.793Z,120
2017-01-18T10:01:56.250Z,120
2017-01-18T10:02:36.808Z,120
2017-01-18T10:03:17.360Z,115
2017-01-18T10:03:57.829Z,115
2017-01-18T10:06:27.120Z,115
2017-01-18T10:07:07.619Z,115
2017-01-18T10:07:48.150Z,120
2017-01-18T10:08:28.646Z,120
2017-01-18T10:09:09.142Z,120
2017-01-18T10:09:49.730Z,125
2017-01-18T10:10:32.380Z,125
2017-01-18T10:11:12.880Z,125
2017-01-18T10:11:53.380Z,125
2017-01-18T10:12:33.877Z,125
2017-01-18T10:13:14.371Z,125
2017-01-18T10:13:54.909Z,130
2017-01-18T10:14:35.427Z,130
2017-01-18T10:15:15.909Z,130
2017-01-18T10:15:56.425Z,135
2017-01-18T10:16:38.825Z,140
2017-01-18T10:17:22.274Z,140
2017-01-18T10:18:02.851Z,140
2017-01-18T10:18:43.441Z,140
2017-01-18T10:19:23.905Z,145
2017-01-18T10:20:04.460Z,140